Ireland, WV

10:25 AM EDT on October 01, 2014 (GMT -0400)
Carter - Holly Grove | Change Station
CLOSE
Current Station
Personal Weather Station
Location: Rock Cave, WV
Elevation: 1860 ft
Nearby Weather Stations

Elev 1860 ft 38.84 °N, 80.27 °W | Updated 0 second ago

Fog
Fog
61.4 °F
Feels Like 61.4 °F
N
0.0
Wind Variable Wind from SW
Gusts 5.0 mph

Today
High -- | Low -- °F
--% Chance of Precip.
Yesterday
High -- | Low -- °F
Precip. -- in
7:17 AM 7:04 PM
Waxing Crescent, 48% visible
Pressure 30.05 in
Visibility 0.2 miles
Clouds Overcast 100 ft
Dew Point 58 °F
Humidity 90%
Rainfall 0.01 in
Snow Depth Not available.
UV 1 out of 12
Pollen 2.90 out of 12
Air Quality Not available.
Flu Activity Not available.
METAR KW22 011355Z AUTO 00000KT 1/4SM FG OVC001 13/13 A3005 RMK AO2

More Conditions Fewer Conditions

Pressure 30.05 in
Visibility 0.2 miles
Clouds Overcast 100 ft
Dew Point 58 °F
Humidity 90%
Rainfall 0.01 in
Snow Depth Not available.
UV 1 out of 12
Pollen 2.90 out of 12
Air Quality Not available.
Flu Activity Not available.
METAR KW22 011355Z AUTO 00000KT 1/4SM FG OVC001 13/13 A3005 RMK AO2

More Conditions Fewer Conditions

10-Day Weather Forecast

Almanac

Astronomy

Oct. 01, 2014 Rise Set
Actual Time 7:17 AM EDT 7:04 PM EDT
Civil Twilight 6:51 AM EDT 7:31 PM EDT
Nautical Twilight 6:20 AM EDT 8:01 PM EDT
Astronomical Twilight 5:49 AM EDT 8:32 PM EDT
Moon 2:14 PM EDT No Moon Set
Length of Visible Light 12h 39m
Length of Day
11h 46m
Tomorrow will be 2m 30s shorter.
Waxing Crescent, 48% of the Moon is Illuminated
Today
Waxing Crescent
Oct 1
First Quarter
Oct 8
Full
Oct 15
Last Quarter
Oct 23
New

Today's Extremes

State Highs State Lows

Community

WunderPhotos

Upload Photos

1,757,956 photos uploaded!

Nearby

Snow Depth

Station Depth Elevation
No new snow has been reported.

Earthquake Activity

City Distance Mag. Time & Date
No recent earthquake activity has been reported nearby.
Minimum magnitude displayed is 2.5.

Coastal Water Temperatures

Place Temperature
No Stations Reporting

Nearby Weather Stations